Raporty Pogodowe z Lotnisk

 

EPKK - Krakow/Balice, Poland
Odległość od stacji: Zd 81km
Aktualizacja: 20/01/2022 12:30
Snow showers, Przeważnie pochmurno
Snow showers, Przeważnie pochmurno
 Wiatr z ZdPdZd
Wiatr: ZdPdZd 33 km/h
Temperatura: 2°C
Temperatura Odczuwalna: -4°C
Punkt Rosy: -2°C
Wilgotność Względna: 75%
Ciśnienie Względne: 1008 hPa
Podsumowanie: Snow Showers
Chmury: Przeważnie pochmurno
Widoczność: 4 km
Szczegóły chmur: Przeważnie pochmurno 518 m
2022/01/20 11:30 EPKK 201130Z 24018KT 4000 SHSN BKN017CB 02/M02 Q1008
EPRZ - Rzeszow/Jasionka, Poland
Odległość od stacji: Ws 81km
Aktualizacja: 20/01/2022 12:30
Przeważnie pochmurno
Przeważnie pochmurno
 Wiatr z PdZd
Wiatr: PdZd 20 km/h
Temperatura: 1°C
Temperatura Odczuwalna: -4°C
Punkt Rosy: -1°C
Wilgotność Względna: 87%
Ciśnienie Względne: 1007 hPa
Chmury: Przeważnie pochmurno
Widoczność: 10 km
Szczegóły chmur: Przeważnie pochmurno 610 m
2022/01/20 11:30 EPRZ 201130Z 23011KT 9999 BKN020 01/M01 Q1007
 
EPKT - Katowice/Pyrzowice, Poland
Odległość od stacji: ZdPnZd 141km
Aktualizacja: 20/01/2022 12:30
Przeważnie pochmurno
Przeważnie pochmurno
 Wiatr z Zd
Wiatr: Zd 31 km/h
Temperatura: -1°C
Temperatura Odczuwalna: -8°C
Punkt Rosy: -3°C
Wilgotność Względna: 86%
Ciśnienie Względne: 1009 hPa
Chmury: Przeważnie pochmurno
Widoczność: 10 km
Szczegóły chmur: Małe zachmurzenie 274 m
Przeważnie pochmurno 457 m
2022/01/20 11:30 EPKT 201130Z 28017KT 260V320 9999 FEW009CB BKN015 M01/M03 Q1009 RESHSN
EPWA - Warsaw/Okecie, Poland
Odległość od stacji: Pn 240km
Aktualizacja: 20/01/2022 12:30
Częściowe zachmurzenie
Częściowe zachmurzenie
 Wiatr z Zd
Wiatr: Zd 46 km/h
Temperatura: 1°C
Temperatura Odczuwalna: -6°C
Punkt Rosy: -5°C
Wilgotność Względna: 65%
Ciśnienie Względne: 1002 hPa
Chmury: Częściowe zachmurzenie
Widoczność: 10 km
Szczegóły chmur: Małe zachmurzenie 1097 m
Częściowe zachmurzenie 1402 m
2022/01/20 11:30 EPWA 201130Z 26025KT 9999 FEW036CB SCT046 01/M05 Q1002 TEMPO 4500 SHSN BKN015CB
 
EPLL - Lodz/Lublinek, Poland
Odległość od stacji: PnPnZd 218km
Aktualizacja: 20/01/2022 12:30
Pochmurnie
Pochmurnie
 Wiatr z Zd
Wiatr: Zd 33 km/h
Temperatura: 0°C
Temperatura Odczuwalna: -7°C
Punkt Rosy: -5°C
Wilgotność Względna: 69%
Ciśnienie Względne: 1006 hPa
Chmury: Pochmurnie
Widoczność: 10 km
Szczegóły chmur: Częściowe zachmurzenie 640 m
Pochmurnie 732 m
2022/01/20 11:30 EPLL 201130Z 26018KT 9999 SCT021 OVC024 M00/M05 Q1006
EPWR - Wroclaw/Strachowice, Poland
Odległość od stacji: ZdPnZd 311km
Aktualizacja: 20/01/2022 12:30
Częściowe zachmurzenie
Częściowe zachmurzenie
 Wiatr z PnZd
Wiatr: PnZd 44 km/h
Temperatura: 0°C
Temperatura Odczuwalna: -8°C
Punkt Rosy: -6°C
Wilgotność Względna: 64%
Ciśnienie Względne: 1012 hPa
Chmury: Częściowe zachmurzenie
Widoczność: 10 km
Szczegóły chmur: Małe zachmurzenie 1036 m
Częściowe zachmurzenie 1189 m
2022/01/20 11:30 EPWR 201130Z 31024KT 9999 FEW034 SCT039 00/M06 Q1012
 
EPGD - Gdansk/Rebiechowo, Poland
Odległość od stacji: PnZd 553km
Aktualizacja: 20/01/2022 12:30
Low drifting snow, Częściowe zachmurzenie
Low drifting snow, Częściowe zachmurzenie
 Wiatr z ZdPnZd
Wiatr: ZdPnZd 33 km/h
Temperatura: -3°C
Temperatura Odczuwalna: -11°C
Punkt Rosy: -7°C
Wilgotność Względna: 74%
Ciśnienie Względne: 999 hPa
Podsumowanie: Low Drifting Snow
Chmury: Częściowe zachmurzenie
Widoczność: 10 km
Szczegóły chmur: Małe zachmurzenie 61 m
Częściowe zachmurzenie 701 m
2022/01/20 11:30 EPGD 201130Z 29018KT 9999 DRSN FEW002 SCT023TCU M03/M07 Q0999 RESHSN
EPSC - Szczecin/Goleniow, Poland
Odległość od stacji: ZdPnZd 635km
Aktualizacja: 20/01/2022 12:30
Przeważnie pochmurno
Przeważnie pochmurno
 Wiatr z ZdPnZd
Wiatr: ZdPnZd 37 km/h, Poryw: 57 km/h
Temperatura: 2°C
Temperatura Odczuwalna: -4°C
Punkt Rosy: -4°C
Wilgotność Względna: 65%
Ciśnienie Względne: 1009 hPa
Chmury: Przeważnie pochmurno
Widoczność: 10 km
Szczegóły chmur: Częściowe zachmurzenie 823 m
Przeważnie pochmurno 1372 m
2022/01/20 11:30 EPSC 201130Z 29020G31KT 9999 SCT027 BKN045 02/M04 Q1009